Time;durP1;ratioP1;P1;durP2;ratioP2;P2;SDS_P1;SDS_P2;PMS_P1;PMS_P2;Temp;Humidity;BMP_temperature;BMP_pressure;BME280_temperature;BME280_humidity;BME280_pressure;Samples;Min_cycle;Max_cycle;Signal;HPM_P1;HPM_P2
2023/05/05 00:01:25;;;;;;;0.50;0.30;;;18.80;71.50;;;;;;5040506;28;20445;-74
2023/05/05 00:03:52;;;;;;;0.50;0.40;;;18.70;72.30;;;;;;5042764;28;20557;-78
2023/05/05 00:06:20;;;;;;;0.50;0.40;;;18.70;71.90;;;;;;5044240;28;20441;-78
2023/05/05 00:08:47;;;;;;;0.60;0.53;;;18.70;72.20;;;;;;5043514;28;20452;-78
2023/05/05 00:11:14;;;;;;;0.67;0.67;;;18.70;72.10;;;;;;5043883;28;20441;-79
2023/05/05 00:13:40;;;;;;;0.83;0.83;;;18.70;72.50;;;;;;5042689;28;20516;-79
2023/05/05 00:16:07;;;;;;;0.50;0.30;;;18.70;73.20;;;;;;5040368;28;20977;-78
2023/05/05 00:18:34;;;;;;;0.50;0.30;;;18.50;74.80;;;;;;5040158;28;20448;-79
2023/05/05 00:21:01;;;;;;;0.50;0.40;;;18.50;74.80;;;;;;5043920;28;20891;-78
2023/05/05 00:23:29;;;;;;;0.50;0.40;;;18.50;75.20;;;;;;5043729;28;20444;-78
2023/05/05 00:25:56;;;;;;;0.50;0.30;;;18.50;76.10;;;;;;5040456;28;20438;-78
2023/05/05 00:28:23;;;;;;;0.50;0.40;;;18.50;76.70;;;;;;5038465;28;20444;-79
2023/05/05 00:30:50;;;;;;;2.83;1.17;;;18.40;77.90;;;;;;5041137;28;20447;-78
2023/05/05 00:33:17;;;;;;;0.60;0.50;;;18.40;77.50;;;;;;5039969;28;20520;-79
2023/05/05 00:35:44;;;;;;;0.63;0.60;;;18.40;78.10;;;;;;5040988;28;20477;-79
2023/05/05 00:38:10;;;;;;;0.77;0.77;;;18.40;78.10;;;;;;5043154;28;20433;-79
2023/05/05 00:40:38;;;;;;;1.03;0.90;;;18.40;79.70;;;;;;5042836;28;20445;-77
2023/05/05 00:43:06;;;;;;;0.50;0.30;;;18.40;80.20;;;;;;5039880;28;20555;-80
2023/05/05 00:45:33;;;;;;;0.50;0.40;;;18.30;83.50;;;;;;5039787;28;20519;-76
2023/05/05 00:48:01;;;;;;;1.70;1.60;;;18.30;81.90;;;;;;5042949;28;20494;-80
2023/05/05 00:50:29;;;;;;;0.50;0.30;;;18.30;83.50;;;;;;5043135;28;20447;-79
2023/05/05 00:52:57;;;;;;;0.50;0.30;;;18.20;84.40;;;;;;5040278;28;20441;-78
2023/05/05 00:55:25;;;;;;;0.50;0.30;;;18.20;86.90;;;;;;5039594;28;21015;-79
2023/05/05 00:57:53;;;;;;;0.67;0.50;;;18.10;89.00;;;;;;5041281;28;20450;-79
2023/05/05 01:00:20;;;;;;;0.50;0.30;;;18.00;90.80;;;;;;5042902;28;20480;-78
2023/05/05 01:02:47;;;;;;;0.50;0.30;;;17.90;95.10;;;;;;5041604;28;20445;-78
2023/05/05 01:05:15;;;;;;;0.60;0.57;;;17.90;95.90;;;;;;5039513;28;20462;-77
2023/05/05 01:07:53;;;;;;;0.50;0.40;;;17.90;98.10;;;;;;5039959;28;20857;-79
2023/05/05 01:10:29;;;;;;;0.70;0.67;;;17.80;99.90;;;;;;5042689;28;20451;-79
2023/05/05 01:13:09;;;;;;;0.80;0.80;;;17.70;99.90;;;;;;5042903;28;20452;-78
2023/05/05 01:15:41;;;;;;;0.70;0.60;;;17.70;99.90;;;;;;5042728;28;21005;-79
2023/05/05 01:18:17;;;;;;;0.50;0.43;;;17.70;99.90;;;;;;5032116;28;20442;-79
2023/05/05 01:20:49;;;;;;;0.50;0.30;;;17.80;99.90;;;;;;5039740;28;20452;-78
2023/05/05 01:23:27;;;;;;;0.50;0.40;;;17.70;99.90;;;;;;5042607;28;20491;-79
2023/05/05 01:26:14;;;;;;;1.93;1.00;;;17.70;99.90;;;;;;5042425;28;20544;-80
2023/05/05 01:29:08;;;;;;;0.50;0.40;;;17.70;99.90;;;;;;5042416;28;20904;-78
2023/05/05 01:31:50;;;;;;;1.53;1.43;;;17.60;99.90;;;;;;5042690;28;20883;-79
2023/05/05 01:34:23;;;;;;;0.50;0.40;;;17.60;99.90;;;;;;5032649;28;20461;-77
2023/05/05 01:36:55;;;;;;;1.00;0.50;;;17.50;99.90;;;;;;5040095;28;20438;-78
2023/05/05 01:39:28;;;;;;;0.67;0.60;;;17.50;99.90;;;;;;5042849;28;20445;-78
2023/05/05 01:41:59;;;;;;;1.23;0.70;;;17.40;99.90;;;;;;5040222;28;20812;-79
2023/05/05 01:44:28;;;;;;;0.73;0.73;;;17.40;99.90;;;;;;5039192;28;20466;-79
2023/05/05 01:46:57;;;;;;;0.77;0.77;;;17.30;99.90;;;;;;5038866;28;20441;-79
2023/05/05 01:49:25;;;;;;;0.50;0.40;;;17.30;99.90;;;;;;5039139;28;20492;-76
2023/05/05 01:51:52;;;;;;;0.60;0.47;;;17.20;99.90;;;;;;5040347;28;20452;-78
2023/05/05 01:54:20;;;;;;;2.90;1.40;;;17.20;99.90;;;;;;5042529;28;20465;-78
2023/05/05 01:56:49;;;;;;;0.50;0.40;;;17.10;99.90;;;;;;5041387;28;20487;-78
2023/05/05 01:59:17;;;;;;;0.50;0.43;;;17.10;99.90;;;;;;5039119;28;20869;-78
2023/05/05 02:01:46;;;;;;;5.33;1.27;;;17.00;99.90;;;;;;5039001;28;20541;-79
2023/05/05 02:04:17;;;;;;;1.67;1.27;;;17.00;99.90;;;;;;5042253;28;21003;-78
2023/05/05 02:06:46;;;;;;;0.50;0.33;;;17.00;99.90;;;;;;5045173;28;20445;-78
2023/05/05 02:09:14;;;;;;;1.53;1.10;;;16.90;99.90;;;;;;5050126;28;20959;-78
2023/05/05 02:11:42;;;;;;;4.20;2.20;;;16.90;99.90;;;;;;5042461;28;20452;-78
2023/05/05 02:14:10;;;;;;;2.97;1.07;;;16.90;99.90;;;;;;5046055;28;20467;-79
2023/05/05 02:16:40;;;;;;;0.77;0.43;;;16.90;99.90;;;;;;5045879;28;20476;-79
2023/05/05 02:19:08;;;;;;;5.60;0.60;;;16.80;99.90;;;;;;5042770;28;20504;-79
2023/05/05 02:21:37;;;;;;;2.87;0.63;;;16.80;99.90;;;;;;5042385;28;20533;-78
2023/05/05 02:24:04;;;;;;;0.60;0.50;;;16.80;99.90;;;;;;5045167;28;20460;-78
2023/05/05 02:26:35;;;;;;;0.53;0.40;;;16.90;99.90;;;;;;5045746;28;20451;-79
2023/05/05 02:29:06;;;;;;;0.50;0.30;;;16.90;99.90;;;;;;5037400;28;20469;-78
2023/05/05 02:31:38;;;;;;;2.13;2.03;;;16.80;99.90;;;;;;5045923;28;20487;-78
2023/05/05 02:34:07;;;;;;;1.13;0.70;;;16.80;99.90;;;;;;5042393;28;20969;-78
2023/05/05 02:36:41;;;;;;;1.70;0.73;;;16.70;99.90;;;;;;5042258;28;20568;-78
2023/05/05 02:39:12;;;;;;;0.50;0.30;;;16.70;99.90;;;;;;5042214;28;20445;-79
2023/05/05 02:41:41;;;;;;;0.50;0.40;;;16.70;99.90;;;;;;5042250;28;20818;-78
2023/05/05 02:44:09;;;;;;;0.50;0.40;;;16.80;99.90;;;;;;5045296;28;20461;-80
2023/05/05 02:46:37;;;;;;;0.50;0.40;;;16.80;99.90;;;;;;5045582;28;20443;-79
2023/05/05 02:49:04;;;;;;;0.50;0.30;;;16.80;99.90;;;;;;5042426;28;20446;-79
2023/05/05 02:51:31;;;;;;;1.33;1.03;;;16.90;99.90;;;;;;5041746;28;20532;-78
2023/05/05 02:54:00;;;;;;;0.50;0.40;;;16.90;99.90;;;;;;5041710;28;21226;-78
2023/05/05 02:56:34;;;;;;;1.70;0.80;;;16.90;99.90;;;;;;5041820;28;20573;-80
2023/05/05 02:59:08;;;;;;;0.50;0.40;;;16.90;99.90;;;;;;5044013;28;20456;-78
2023/05/05 03:01:47;;;;;;;1.23;1.23;;;16.80;99.90;;;;;;5044969;28;20448;-79
2023/05/05 03:04:17;;;;;;;1.70;1.60;;;16.80;99.90;;;;;;5034108;28;20468;-78
2023/05/05 03:06:48;;;;;;;1.17;0.93;;;16.80;99.90;;;;;;5041623;28;20478;-76
2023/05/05 03:09:26;;;;;;;0.50;0.40;;;16.70;99.90;;;;;;5034372;28;20996;-79
2023/05/05 03:11:59;;;;;;;0.50;0.30;;;16.70;99.90;;;;;;5042826;28;20447;-79
2023/05/05 03:14:28;;;;;;;0.60;0.50;;;16.60;99.90;;;;;;5045696;28;20473;-79
2023/05/05 03:16:56;;;;;;;0.50;0.40;;;16.60;99.90;;;;;;5044548;28;20499;-80
2023/05/05 03:19:24;;;;;;;0.50;0.40;;;16.50;99.90;;;;;;5045609;28;20449;-79
2023/05/05 03:21:51;;;;;;;0.50;0.37;;;16.40;99.90;;;;;;5044231;28;20445;-77
2023/05/05 03:24:21;;;;;;;0.57;0.50;;;16.40;99.90;;;;;;5042195;28;20466;-79
2023/05/05 03:26:49;;;;;;;0.70;0.70;;;16.30;99.90;;;;;;5043199;28;20497;-81
2023/05/05 03:29:16;;;;;;;0.50;0.40;;;16.20;99.90;;;;;;5047129;28;20472;-81
2023/05/05 03:31:43;;;;;;;0.50;0.40;;;16.20;99.90;;;;;;5046949;28;20453;-80
2023/05/05 03:34:10;;;;;;;0.50;0.30;;;16.00;99.90;;;;;;5042896;28;21052;-79
2023/05/05 03:36:36;;;;;;;6.60;3.47;;;15.90;99.90;;;;;;5049242;28;20472;-78
2023/05/05 03:39:03;;;;;;;0.97;0.93;;;15.90;99.90;;;;;;5042783;28;20448;-79
2023/05/05 03:41:31;;;;;;;0.50;0.40;;;15.90;99.90;;;;;;5042802;28;20442;-79
2023/05/05 03:43:58;;;;;;;1.27;1.27;;;15.90;99.90;;;;;;5043996;28;20462;-79
2023/05/05 03:46:25;;;;;;;3.70;1.03;;;15.80;99.90;;;;;;5046782;28;20441;-78
2023/05/05 03:48:52;;;;;;;2.77;2.60;;;15.80;99.90;;;;;;5045423;28;20441;-79
2023/05/05 03:51:19;;;;;;;0.50;0.40;;;15.80;99.90;;;;;;5044499;28;20452;-80
2023/05/05 03:53:46;;;;;;;4.23;2.10;;;15.70;99.90;;;;;;5044573;28;20856;-80
2023/05/05 03:56:13;;;;;;;10.30;3.53;;;15.70;99.90;;;;;;5035979;28;20485;-79
2023/05/05 03:58:41;;;;;;;0.60;0.60;;;15.60;99.90;;;;;;5044885;28;20514;-80
2023/05/05 04:01:08;;;;;;;0.50;0.50;;;15.60;99.90;;;;;;5038566;28;21434;-80
2023/05/05 04:03:35;;;;;;;0.50;0.40;;;15.50;99.90;;;;;;5038400;28;20437;-78
2023/05/05 04:06:01;;;;;;;0.50;0.40;;;15.50;99.90;;;;;;5046780;28;20433;-77
2023/05/05 04:08:28;;;;;;;0.50;0.40;;;15.50;99.90;;;;;;5046353;28;20962;-80
2023/05/05 04:10:56;;;;;;;0.60;0.60;;;15.40;99.90;;;;;;5052890;28;20452;-79
2023/05/05 04:13:23;;;;;;;1.43;0.70;;;15.40;99.90;;;;;;5047032;28;20444;-79
2023/05/05 04:15:51;;;;;;;0.50;0.30;;;15.40;99.90;;;;;;5045857;28;20484;-79
2023/05/05 04:18:18;;;;;;;0.50;0.40;;;15.30;99.90;;;;;;5054460;28;20445;-78
2023/05/05 04:20:45;;;;;;;0.50;0.43;;;15.30;99.90;;;;;;5040106;28;20473;-79
2023/05/05 04:23:12;;;;;;;0.50;0.40;;;15.20;99.90;;;;;;5045347;28;20503;-78
2023/05/05 04:25:39;;;;;;;0.50;0.40;;;15.20;99.90;;;;;;5053838;28;20496;-80
2023/05/05 04:28:06;;;;;;;0.73;0.73;;;15.20;99.90;;;;;;5053472;28;20505;-77
2023/05/05 04:30:32;;;;;;;1.17;1.17;;;15.20;99.90;;;;;;5052177;28;20441;-79
2023/05/05 04:33:01;;;;;;;0.93;0.90;;;15.20;99.90;;;;;;5051554;28;20531;-80
2023/05/05 04:35:27;;;;;;;2.50;0.67;;;15.30;99.90;;;;;;5046863;28;20482;-80
2023/05/05 04:37:54;;;;;;;2.03;1.37;;;15.30;99.90;;;;;;5049029;28;20824;-78
2023/05/05 04:40:21;;;;;;;0.50;0.40;;;15.30;99.90;;;;;;5051741;28;20532;-79
2023/05/05 04:42:48;;;;;;;0.60;0.53;;;15.30;99.90;;;;;;5046108;28;20485;-80
2023/05/05 04:45:15;;;;;;;2.10;2.00;;;15.40;99.90;;;;;;5052869;28;20493;-79
2023/05/05 04:47:42;;;;;;;1.37;1.27;;;15.40;99.90;;;;;;5036837;28;20528;-79
2023/05/05 04:50:11;;;;;;;1.40;1.40;;;15.40;99.90;;;;;;5042352;28;20489;-79
2023/05/05 04:52:38;;;;;;;0.60;0.60;;;15.50;99.90;;;;;;5043596;28;20464;-80
2023/05/05 04:55:05;;;;;;;3.53;1.97;;;15.50;99.90;;;;;;5043252;28;20809;-79
2023/05/05 04:57:32;;;;;;;1.93;1.83;;;15.50;99.90;;;;;;5044166;28;20921;-79
2023/05/05 05:00:00;;;;;;;2.00;0.97;;;15.50;99.90;;;;;;5043036;28;20481;-79
2023/05/05 05:02:27;;;;;;;1.73;1.43;;;15.50;99.90;;;;;;5041007;28;20513;-79
2023/05/05 05:04:54;;;;;;;0.50;0.40;;;15.50;99.90;;;;;;5044420;28;20548;-79
2023/05/05 05:07:22;;;;;;;0.50;0.40;;;15.50;99.90;;;;;;5037868;28;20470;-79
2023/05/05 05:09:49;;;;;;;1.43;1.33;;;15.60;99.90;;;;;;5038783;28;20450;-77
2023/05/05 05:12:16;;;;;;;1.37;1.27;;;15.60;99.90;;;;;;5042258;28;21004;-78
2023/05/05 05:14:42;;;;;;;1.90;1.80;;;15.60;99.90;;;;;;5042828;28;20900;-77
2023/05/05 05:17:09;;;;;;;0.50;0.37;;;15.60;99.90;;;;;;5040198;28;20895;-79
2023/05/05 05:19:36;;;;;;;2.40;2.20;;;15.80;99.90;;;;;;5039539;28;20474;-78
2023/05/05 05:22:03;;;;;;;1.83;1.70;;;15.80;99.90;;;;;;5040370;28;20439;-78
2023/05/05 05:24:31;;;;;;;0.50;0.40;;;15.90;99.90;;;;;;5042706;28;20514;-79
2023/05/05 05:26:58;;;;;;;0.50;0.30;;;16.00;99.90;;;;;;5041800;28;20475;-78
2023/05/05 05:29:25;;;;;;;1.30;1.20;;;16.10;99.90;;;;;;5043705;28;20960;-79
2023/05/05 05:31:52;;;;;;;0.50;0.40;;;16.20;99.90;;;;;;5042852;28;20861;-79
2023/05/05 05:34:19;;;;;;;1.43;1.33;;;16.20;99.90;;;;;;5031081;28;20462;-78
2023/05/05 05:36:46;;;;;;;2.43;2.33;;;16.30;99.90;;;;;;5039039;28;21065;-78
2023/05/05 05:39:13;;;;;;;2.10;2.00;;;16.30;99.90;;;;;;5031838;28;20552;-79
2023/05/05 05:41:41;;;;;;;5.03;3.40;;;16.30;99.90;;;;;;5034598;28;20895;-78
2023/05/05 05:44:08;;;;;;;0.60;0.40;;;16.40;99.90;;;;;;5044447;28;21000;-78
2023/05/05 05:46:34;;;;;;;1.47;1.37;;;16.40;99.90;;;;;;5049253;28;20448;-78
2023/05/05 05:49:01;;;;;;;4.30;3.80;;;16.50;99.90;;;;;;5035943;28;21022;-80
2023/05/05 05:51:29;;;;;;;1.83;1.70;;;16.50;99.90;;;;;;5040661;28;20512;-79
2023/05/05 05:53:56;;;;;;;3.43;3.13;;;16.60;99.90;;;;;;5047269;28;20469;-78
2023/05/05 05:56:22;;;;;;;1.53;1.43;;;16.70;99.90;;;;;;5042864;28;20477;-75
2023/05/05 05:58:51;;;;;;;3.03;1.63;;;16.90;99.90;;;;;;5042795;28;20472;-79
2023/05/05 06:01:17;;;;;;;0.60;0.57;;;17.50;99.90;;;;;;5045446;28;20463;-81
2023/05/05 06:03:44;;;;;;;0.50;0.30;;;18.30;99.90;;;;;;5046255;28;20635;-78
2023/05/05 06:06:11;;;;;;;1.40;1.30;;;19.30;99.90;;;;;;5043887;28;20456;-79
2023/05/05 06:08:38;;;;;;;0.93;0.93;;;20.30;99.90;;;;;;5042885;28;20538;-81
2023/05/05 06:11:05;;;;;;;0.70;0.70;;;20.70;99.90;;;;;;5044022;28;20513;-80
2023/05/05 06:13:32;;;;;;;1.60;0.97;;;21.20;99.90;;;;;;5046594;28;20441;-79
2023/05/05 06:16:00;;;;;;;0.67;0.67;;;21.50;99.90;;;;;;5045416;28;21027;-79
2023/05/05 06:18:27;;;;;;;0.50;0.40;;;21.50;99.90;;;;;;5043685;28;20444;-80
2023/05/05 06:20:54;;;;;;;0.63;0.57;;;21.30;99.90;;;;;;5043752;28;20812;-79
2023/05/05 06:23:21;;;;;;;0.50;0.40;;;22.00;99.90;;;;;;5043749;28;20529;-80
2023/05/05 06:25:48;;;;;;;0.50;0.40;;;22.10;99.90;;;;;;5047712;28;20536;-81
2023/05/05 06:28:15;;;;;;;8.73;2.30;;;22.40;99.90;;;;;;5047220;28;20522;-78
2023/05/05 06:30:41;;;;;;;0.50;0.37;;;22.80;99.90;;;;;;5041451;28;20438;-82
2023/05/05 06:33:10;;;;;;;2.60;2.00;;;22.90;99.90;;;;;;5050723;28;20933;-82
2023/05/05 06:35:37;;;;;;;1.57;1.47;;;23.60;99.90;;;;;;5052050;28;20560;-81
2023/05/05 06:38:04;;;;;;;1.23;1.13;;;24.10;99.90;;;;;;5042708;28;20444;-85
2023/05/05 06:40:30;;;;;;;1.87;1.77;;;24.30;99.90;;;;;;5051713;28;20437;-81
2023/05/05 06:42:57;;;;;;;0.50;0.30;;;24.90;97.50;;;;;;5050034;28;20874;-79
2023/05/05 06:45:24;;;;;;;0.63;0.63;;;25.50;95.40;;;;;;5046820;28;20500;-82
2023/05/05 06:47:51;;;;;;;0.50;0.30;;;26.10;96.20;;;;;;5052723;28;20443;-81
2023/05/05 06:50:19;;;;;;;4.40;1.23;;;26.90;90.20;;;;;;5046216;28;20438;-82
2023/05/05 06:52:46;;;;;;;2.10;1.13;;;27.40;85.40;;;;;;5043850;28;20452;-81
2023/05/05 06:55:13;;;;;;;0.70;0.40;;;27.80;79.50;;;;;;5054695;28;20976;-80
2023/05/05 06:57:40;;;;;;;0.60;0.57;;;27.90;79.60;;;;;;5047714;28;20561;-81
2023/05/05 07:00:10;;;;;;;0.50;0.30;;;28.40;75.40;;;;;;5047143;28;20449;-80
2023/05/05 07:02:37;;;;;;;0.50;0.43;;;28.60;75.30;;;;;;5045335;28;20814;-83
2023/05/05 07:05:04;;;;;;;0.97;0.87;;;29.00;73.80;;;;;;5050480;28;20501;-80
2023/05/05 07:07:32;;;;;;;0.50;0.30;;;29.10;71.10;;;;;;5055970;28;20938;-80
2023/05/05 07:09:59;;;;;;;1.33;1.23;;;28.90;72.60;;;;;;5047463;28;20447;-76
2023/05/05 07:12:29;;;;;;;3.90;1.67;;;29.60;69.10;;;;;;5043225;28;20444;-80
2023/05/05 07:14:56;;;;;;;1.73;1.10;;;28.60;67.70;;;;;;5060078;28;20545;-81
2023/05/05 07:17:23;;;;;;;0.93;0.93;;;27.90;69.40;;;;;;5056618;28;20482;-77
2023/05/05 07:19:50;;;;;;;0.67;0.67;;;26.90;71.60;;;;;;5048026;28;20468;-80
2023/05/05 07:22:17;;;;;;;0.50;0.30;;;26.30;73.80;;;;;;5049583;28;20461;-80
2023/05/05 07:24:45;;;;;;;0.60;0.57;;;26.10;76.00;;;;;;5048968;28;20484;-79
2023/05/05 07:27:12;;;;;;;1.47;0.70;;;26.10;76.30;;;;;;5051409;28;20512;-81
2023/05/05 07:29:39;;;;;;;0.50;0.40;;;25.90;76.50;;;;;;5050723;28;20442;-77
2023/05/05 07:32:06;;;;;;;0.50;0.30;;;26.10;78.00;;;;;;5042532;28;20521;-79
2023/05/05 07:34:35;;;;;;;0.50;0.30;;;26.30;77.30;;;;;;5050567;28;20465;-80
2023/05/05 07:37:02;;;;;;;0.50;0.30;;;26.40;77.90;;;;;;5059829;28;20507;-80
2023/05/05 07:39:30;;;;;;;2.10;0.83;;;26.50;78.30;;;;;;5056074;28;20449;-80
2023/05/05 07:41:58;;;;;;;0.67;0.67;;;26.70;77.30;;;;;;5054550;28;20445;-81
2023/05/05 07:44:25;;;;;;;0.50;0.30;;;26.80;77.40;;;;;;5052253;28;20529;-80
2023/05/05 07:46:52;;;;;;;0.50;0.30;;;27.00;78.50;;;;;;5044540;28;20782;-81
2023/05/05 07:49:19;;;;;;;1.53;1.07;;;27.60;77.80;;;;;;5063224;28;20442;-80
2023/05/05 07:51:48;;;;;;;0.50;0.30;;;27.80;75.60;;;;;;5055596;28;20445;-81
2023/05/05 07:54:16;;;;;;;0.50;0.30;;;27.80;74.20;;;;;;5042504;28;20512;-82
2023/05/05 07:56:43;;;;;;;2.20;0.87;;;27.50;74.00;;;;;;5047283;28;20473;-80
2023/05/05 07:59:11;;;;;;;0.50;0.30;;;26.90;74.40;;;;;;5046738;28;20866;-81
2023/05/05 08:01:38;;;;;;;0.50;0.50;;;26.30;76.60;;;;;;5047874;28;20529;-80
2023/05/05 08:04:05;;;;;;;0.50;0.47;;;26.40;77.80;;;;;;5047553;28;20494;-80
2023/05/05 08:06:32;;;;;;;0.50;0.30;;;26.40;78.40;;;;;;5045940;28;20445;-81
2023/05/05 08:09:00;;;;;;;0.50;0.40;;;26.50;79.20;;;;;;5047503;28;20474;-79
2023/05/05 08:11:27;;;;;;;0.50;0.30;;;26.90;78.40;;;;;;5038398;28;20516;-80
2023/05/05 08:13:54;;;;;;;0.50;0.40;;;27.10;76.80;;;;;;5048253;28;20457;-80
2023/05/05 08:16:22;;;;;;;0.60;0.60;;;27.50;74.90;;;;;;5047697;28;20521;-81
2023/05/05 08:18:49;;;;;;;0.50;0.30;;;27.70;73.70;;;;;;5046771;28;20527;-79
2023/05/05 08:21:17;;;;;;;0.50;0.30;;;27.40;74.30;;;;;;5042906;28;20487;-80
2023/05/05 08:23:44;;;;;;;0.50;0.37;;;27.70;75.00;;;;;;5041768;28;20527;-79
2023/05/05 08:26:11;;;;;;;0.50;0.30;;;28.10;75.90;;;;;;5042378;28;20516;-79
2023/05/05 08:28:37;;;;;;;0.60;0.40;;;28.70;72.40;;;;;;5046209;28;20897;-81
2023/05/05 08:31:05;;;;;;;1.97;1.87;;;29.20;73.00;;;;;;5044997;28;20449;-81
2023/05/05 08:33:33;;;;;;;0.50;0.30;;;29.80;72.60;;;;;;5041656;28;20489;-79
2023/05/05 08:36:00;;;;;;;0.50;0.30;;;30.00;70.90;;;;;;5041017;28;20814;-80
2023/05/05 08:38:27;;;;;;;2.73;2.23;;;30.80;65.90;;;;;;5042899;28;20469;-79
2023/05/05 08:40:54;;;;;;;1.10;0.80;;;31.30;63.40;;;;;;5032156;28;20454;-81
2023/05/05 08:43:22;;;;;;;0.50;0.30;;;31.00;63.80;;;;;;5031475;28;20504;-80
2023/05/05 08:45:51;;;;;;;0.50;0.30;;;30.70;65.80;;;;;;5029191;28;20445;-80
2023/05/05 08:48:19;;;;;;;1.77;1.67;;;31.10;63.60;;;;;;5029989;28;20433;-80
2023/05/05 08:50:51;;;;;;;0.50;0.37;;;31.20;62.10;;;;;;5027367;28;20449;-78
2023/05/05 08:53:29;;;;;;;1.43;1.33;;;31.50;62.70;;;;;;5029623;28;20529;-77
2023/05/05 08:55:56;;;;;;;1.03;1.03;;;32.10;60.90;;;;;;5026786;28;20441;-79
2023/05/05 08:58:24;;;;;;;0.50;0.47;;;32.70;62.30;;;;;;5028460;28;20480;-78
2023/05/05 09:00:52;;;;;;;0.50;0.43;;;33.90;59.30;;;;;;5027407;28;20951;-80
2023/05/05 09:03:19;;;;;;;0.60;0.57;;;34.50;56.60;;;;;;5030106;28;20438;-79
2023/05/05 09:05:47;;;;;;;0.40;0.30;;;34.60;57.50;;;;;;5028045;28;20442;-78
2023/05/05 09:08:14;;;;;;;0.50;0.43;;;34.50;58.00;;;;;;5029715;28;20930;-79
2023/05/05 09:10:42;;;;;;;1.43;1.33;;;34.30;55.10;;;;;;5043184;28;20990;-79
2023/05/05 09:13:09;;;;;;;0.50;0.40;;;34.50;56.70;;;;;;5035209;28;20442;-77
2023/05/05 09:15:37;;;;;;;0.50;0.30;;;34.90;58.60;;;;;;5043108;28;20488;-76
2023/05/05 09:18:07;;;;;;;0.50;0.40;;;35.10;54.00;;;;;;5042499;28;20473;-79
2023/05/05 09:20:36;;;;;;;0.40;0.30;;;34.60;55.00;;;;;;5031619;28;20499;-79
2023/05/05 09:23:11;;;;;;;0.50;0.30;;;34.50;54.30;;;;;;5039231;28;20940;-79
2023/05/05 09:25:38;;;;;;;0.50;0.30;;;33.80;56.50;;;;;;5031278;28;20470;-78
2023/05/05 09:28:10;;;;;;;0.50;0.30;;;33.60;55.40;;;;;;5039160;28;20458;-78
2023/05/05 09:30:37;;;;;;;0.50;0.30;;;33.40;53.80;;;;;;5031540;28;20442;-78
2023/05/05 09:33:04;;;;;;;0.50;0.50;;;32.80;56.10;;;;;;5040213;28;20445;-80
2023/05/05 09:35:49;;;;;;;1.17;1.07;;;32.50;55.50;;;;;;5041802;28;20454;-79
2023/05/05 09:38:18;;;;;;;0.50;0.30;;;31.90;56.00;;;;;;5047953;28;20480;-79
2023/05/05 09:40:46;;;;;;;0.50;0.40;;;31.70;58.60;;;;;;5043913;28;20944;-80
2023/05/05 09:43:13;;;;;;;0.50;0.50;;;31.30;57.60;;;;;;5043463;28;20452;-79
2023/05/05 09:45:40;;;;;;;2.00;1.90;;;30.70;57.50;;;;;;5042843;28;20464;-79
2023/05/05 09:48:07;;;;;;;0.80;0.70;;;29.80;57.90;;;;;;5042713;28;20443;-80
2023/05/05 09:50:43;;;;;;;0.50;0.30;;;30.10;58.50;;;;;;5036616;28;20444;-80
2023/05/05 09:53:10;;;;;;;0.50;0.30;;;30.90;59.80;;;;;;5043085;28;20441;-79
2023/05/05 09:55:39;;;;;;;0.50;0.30;;;31.20;58.60;;;;;;5044336;28;20456;-78
2023/05/05 09:58:23;;;;;;;0.50;0.50;;;31.50;57.80;;;;;;5044970;28;20481;-80
2023/05/05 10:00:50;;;;;;;4.67;0.87;;;30.80;58.00;;;;;;5034531;28;20453;-79
2023/05/05 10:03:17;;;;;;;0.50;0.30;;;29.80;59.10;;;;;;5041319;28;20529;-79
2023/05/05 10:05:50;;;;;;;1.50;1.40;;;28.80;59.80;;;;;;5046241;28;20479;-80
2023/05/05 10:08:18;;;;;;;0.50;0.30;;;28.00;61.20;;;;;;5056770;28;20501;-79
2023/05/05 10:10:53;;;;;;;0.50;0.30;;;27.40;64.10;;;;;;5043492;28;20438;-79
2023/05/05 10:13:21;;;;;;;0.50;0.30;;;27.10;64.70;;;;;;5040909;28;20445;-78
2023/05/05 10:15:50;;;;;;;0.50;0.40;;;26.70;67.10;;;;;;5043328;28;20532;-79
2023/05/05 10:18:20;;;;;;;0.50;0.47;;;26.20;65.90;;;;;;5042840;28;20481;-79
2023/05/05 10:20:51;;;;;;;1.00;0.80;;;27.00;66.90;;;;;;5040069;28;20453;-78
2023/05/05 10:23:26;;;;;;;1.00;0.73;;;28.00;63.50;;;;;;5042485;28;20941;-79
2023/05/05 10:26:01;;;;;;;0.87;0.87;;;29.00;61.10;;;;;;5043531;28;20559;-80
2023/05/05 10:28:32;;;;;;;0.80;0.80;;;29.60;59.00;;;;;;5044657;28;20852;-75
2023/05/05 10:31:01;;;;;;;0.50;0.30;;;29.70;58.90;;;;;;5044275;28;20469;-80
2023/05/05 10:33:39;;;;;;;0.50;0.30;;;30.40;58.50;;;;;;5047151;28;20933;-80
2023/05/05 10:36:07;;;;;;;2.00;0.60;;;31.40;56.50;;;;;;5041148;28;20456;-81
2023/05/05 10:38:33;;;;;;;1.60;1.00;;;32.00;58.40;;;;;;5046552;28;20476;-80
2023/05/05 10:41:02;;;;;;;0.50;0.30;;;31.70;54.70;;;;;;5048946;28;20528;-80
2023/05/05 10:43:30;;;;;;;0.50;0.30;;;31.10;56.30;;;;;;5047730;28;20540;-81
2023/05/05 10:45:58;;;;;;;0.90;0.60;;;31.10;56.10;;;;;;5048173;28;20987;-80
2023/05/05 10:48:34;;;;;;;0.50;0.50;;;31.00;56.90;;;;;;5045606;28;20473;-80
2023/05/05 10:51:11;;;;;;;0.50;0.30;;;31.10;57.20;;;;;;5044121;28;20438;-79
2023/05/05 10:53:44;;;;;;;0.50;0.30;;;30.50;57.70;;;;;;5036471;28;20445;-79
2023/05/05 10:56:24;;;;;;;0.50;0.40;;;30.90;57.10;;;;;;5044060;28;20447;-80
2023/05/05 10:58:50;;;;;;;4.83;3.13;;;31.00;59.00;;;;;;5037972;28;20532;-80
2023/05/05 11:01:29;;;;;;;0.50;0.30;;;30.30;55.80;;;;;;5044259;28;20446;-80
2023/05/05 11:04:21;;;;;;;0.50;0.30;;;29.40;57.40;;;;;;5048472;28;20836;-78
2023/05/05 11:07:21;;;;;;;0.90;0.60;;;28.80;59.00;;;;;;5037947;28;20524;-80
2023/05/05 11:10:00;;;;;;;0.50;0.30;;;28.30;60.10;;;;;;5036540;28;20508;-80
2023/05/05 11:12:28;;;;;;;0.60;0.50;;;28.10;61.30;;;;;;5045217;28;20458;-80
2023/05/05 11:15:41;;;;;;;0.50;0.30;;;27.70;62.00;;;;;;5047293;28;20536;-80
2023/05/05 11:18:27;;;;;;;0.50;0.30;;;26.70;62.90;;;;;;5003135;28;20477;-81
2023/05/05 11:21:18;;;;;;;0.50;0.30;;;26.80;64.60;;;;;;5037435;28;20959;-81
2023/05/05 11:23:50;;;;;;;0.50;0.30;;;27.00;62.90;;;;;;5036059;28;20526;-80
2023/05/05 11:26:18;;;;;;;0.80;0.80;;;26.90;64.50;;;;;;5043331;28;20445;-80
2023/05/05 11:29:01;;;;;;;0.50;0.30;;;26.70;65.30;;;;;;5046487;28;20441;-80
2023/05/05 11:31:29;;;;;;;0.50;0.30;;;26.50;65.30;;;;;;5043801;28;20469;-80
2023/05/05 11:34:26;;;;;;;0.50;0.30;;;26.20;65.40;;;;;;5042744;28;20854;-79
2023/05/05 11:36:57;;;;;;;0.50;0.30;;;25.80;67.20;;;;;;5037008;28;20933;-80
2023/05/05 11:39:33;;;;;;;0.50;0.30;;;25.30;68.70;;;;;;5043031;28;20474;-80
2023/05/05 11:42:25;;;;;;;0.60;0.60;;;24.90;68.80;;;;;;5048659;28;20437;-80
2023/05/05 11:44:54;;;;;;;0.50;0.30;;;24.50;71.40;;;;;;5034841;28;20853;-78
2023/05/05 11:47:31;;;;;;;0.50;0.30;;;24.10;71.60;;;;;;5042546;28;20449;-79
2023/05/05 11:49:58;;;;;;;0.50;0.40;;;23.70;73.90;;;;;;5052040;28;20466;-79
2023/05/05 11:52:26;;;;;;;0.50;0.30;;;23.50;76.00;;;;;;5055017;28;20501;-79
2023/05/05 11:54:53;;;;;;;0.50;0.40;;;23.20;80.90;;;;;;5057279;28;20440;-78
2023/05/05 11:59:56;;;;;;;3.73;2.63;;;22.30;93.30;;;;;;5082788;28;20487;-80
2023/05/05 12:02:25;;;;;;;0.53;0.47;;;21.90;99.90;;;;;;5065640;28;20947;-79
2023/05/05 12:04:53;;;;;;;0.60;0.50;;;21.40;99.90;;;;;;5082155;28;20493;-77
2023/05/05 12:07:21;;;;;;;0.50;0.30;;;20.90;99.90;;;;;;5069219;28;20457;-78
2023/05/05 12:09:50;;;;;;;0.50;0.40;;;20.30;99.90;;;;;;5067221;28;20644;-79
2023/05/05 12:12:17;;;;;;;1.13;0.50;;;19.90;99.90;;;;;;5070408;28;20638;-79
2023/05/05 12:14:50;;;;;;;1.50;0.80;;;19.40;99.90;;;;;;5061832;28;20440;-80
2023/05/05 12:17:19;;;;;;;2.53;1.63;;;18.80;99.90;;;;;;5062454;28;20551;-79
2023/05/05 12:19:51;;;;;;;0.70;0.60;;;18.20;99.90;;;;;;5065696;28;20475;-80
2023/05/05 12:22:25;;;;;;;4.43;1.33;;;17.60;99.90;;;;;;5064968;28;20444;-79
2023/05/05 12:24:55;;;;;;;1.07;0.87;;;17.10;99.90;;;;;;5062230;28;20437;-80
2023/05/05 12:27:23;;;;;;;0.50;0.40;;;16.80;99.90;;;;;;5062244;28;20461;-81
2023/05/05 12:29:50;;;;;;;0.50;0.40;;;16.70;99.90;;;;;;5065271;28;20445;-80
2023/05/05 12:32:23;;;;;;;3.03;1.50;;;16.50;99.90;;;;;;5065713;28;20444;-81
2023/05/05 12:34:53;;;;;;;0.50;0.40;;;16.50;99.90;;;;;;5054968;28;20433;-80
2023/05/05 12:37:20;;;;;;;0.50;0.50;;;16.40;99.90;;;;;;5061963;28;20824;-80
2023/05/05 12:39:47;;;;;;;1.53;1.13;;;16.30;99.90;;;;;;5061213;28;20503;-81
2023/05/05 12:42:14;;;;;;;0.50;0.30;;;16.30;99.90;;;;;;5062332;28;20797;-81
2023/05/05 12:44:42;;;;;;;0.50;0.40;;;16.30;99.90;;;;;;5064904;28;20444;-80
2023/05/05 12:47:10;;;;;;;0.50;0.30;;;16.40;99.90;;;;;;5065237;28;20476;-81
2023/05/05 12:49:52;;;;;;;0.50;0.30;;;16.60;99.90;;;;;;5062488;28;20446;-81
2023/05/05 12:52:19;;;;;;;0.60;0.50;;;16.90;99.90;;;;;;5061680;28;20982;-79
2023/05/05 12:54:53;;;;;;;1.23;0.93;;;17.00;99.90;;;;;;5065396;28;20467;-81
2023/05/05 12:57:20;;;;;;;0.50;0.30;;;17.10;99.90;;;;;;5064277;28;20460;-80
2023/05/05 12:59:47;;;;;;;0.70;0.63;;;17.20;99.90;;;;;;5061281;28;20999;-81
2023/05/05 13:02:15;;;;;;;0.50;0.40;;;17.10;99.90;;;;;;5061727;28;20873;-80